Time;durP1;ratioP1;P1;durP2;ratioP2;P2;SDS_P1;SDS_P2;PMS_P1;PMS_P2;Temp;Humidity;BMP_temperature;BMP_pressure;BME280_temperature;BME280_humidity;BME280_pressure;Samples;Min_cycle;Max_cycle;Signal;HPM_P1;HPM_P2
2021/10/20 00:01:28;;;;;;;14.95;11.05;;;;;;;17.78;54.44;102606.78;143731;625;47006;-73
2021/10/20 00:03:55;;;;;;;13.70;11.00;;;;;;;17.77;53.94;102611.34;143730;575;47008;-73
2021/10/20 00:06:21;;;;;;;15.80;11.68;;;;;;;17.78;54.55;102614.94;143733;572;47006;-73
2021/10/20 00:08:50;;;;;;;17.27;11.38;;;;;;;17.76;53.87;102609.66;143732;589;47012;-74
2021/10/20 00:11:18;;;;;;;14.82;11.45;;;;;;;17.75;53.93;102612.59;143730;577;47006;-73
2021/10/20 00:13:44;;;;;;;12.70;11.38;;;;;;;17.75;54.13;102613.44;143731;620;47008;-74
2021/10/20 00:16:10;;;;;;;12.75;10.32;;;;;;;17.71;54.42;102607.56;143733;648;47004;-73
2021/10/20 00:18:37;;;;;;;13.38;11.12;;;;;;;17.69;54.22;102612.34;143731;573;47011;-74
2021/10/20 00:21:05;;;;;;;16.77;11.70;;;;;;;17.67;54.29;102613.59;143732;594;47006;-73
2021/10/20 00:23:32;;;;;;;14.98;12.15;;;;;;;17.63;54.56;102615.03;143732;574;46008;-73
2021/10/20 00:25:58;;;;;;;15.45;11.80;;;;;;;17.64;54.53;102605.84;143735;559;47004;-73
2021/10/20 00:28:25;;;;;;;12.80;10.45;;;;;;;17.65;54.55;102611.06;143733;600;46012;-74
2021/10/20 00:30:51;;;;;;;12.95;10.45;;;;;;;17.63;53.98;102609.59;143732;572;46006;-73
2021/10/20 00:33:17;;;;;;;13.38;10.70;;;;;;;17.60;54.17;102604.56;143729;586;47009;-75
2021/10/20 00:35:44;;;;;;;13.75;10.43;;;;;;;17.61;54.39;102606.25;143733;612;47006;-75
2021/10/20 00:38:10;;;;;;;12.32;10.32;;;;;;;17.57;54.16;102601.19;143732;576;46012;-74
2021/10/20 00:40:37;;;;;;;13.18;11.23;;;;;;;17.54;54.31;102601.62;143731;573;47006;-75
2021/10/20 00:43:04;;;;;;;17.20;11.52;;;;;;;17.52;54.87;102603.69;143731;572;47008;-74
2021/10/20 00:45:30;;;;;;;12.77;10.80;;;;;;;17.55;54.67;102597.00;143733;598;47006;-76
2021/10/20 00:47:57;;;;;;;12.80;11.30;;;;;;;17.53;54.00;102588.22;143731;603;47012;-74
2021/10/20 00:50:23;;;;;;;13.27;11.43;;;;;;;17.53;54.69;102597.22;143731;576;47006;-74
2021/10/20 00:52:51;;;;;;;14.20;12.48;;;;;;;17.48;54.71;102594.25;143731;585;46008;-75
2021/10/20 00:55:18;;;;;;;13.77;12.18;;;;;;;17.45;54.65;102594.66;143734;579;47004;-74
2021/10/20 00:57:47;;;;;;;13.85;12.43;;;;;;;17.45;54.18;102589.22;143731;626;47012;-74
2021/10/20 01:00:15;;;;;;;13.95;11.02;;;;;;;17.45;54.48;102589.22;143732;601;47006;-74
2021/10/20 01:02:43;;;;;;;13.27;11.88;;;;;;;17.45;53.99;102582.97;143732;663;46009;-74
2021/10/20 01:05:10;;;;;;;15.13;12.10;;;;;;;17.42;54.37;102590.47;143734;618;47004;-74
2021/10/20 01:07:37;;;;;;;18.37;11.65;;;;;;;17.41;54.02;102586.06;143730;581;47012;-74
2021/10/20 01:10:04;;;;;;;15.00;11.80;;;;;;;17.40;54.20;102578.09;143730;595;47006;-74
2021/10/20 01:12:33;;;;;;;12.95;11.52;;;;;;;17.40;54.56;102581.66;143732;575;46008;-73
2021/10/20 01:14:59;;;;;;;14.02;11.07;;;;;;;17.36;54.84;102577.66;143731;566;47006;-75
2021/10/20 01:17:26;;;;;;;14.00;11.43;;;;;;;17.37;54.59;102578.53;143731;618;47012;-73
2021/10/20 01:19:57;;;;;;;13.50;11.05;;;;;;;17.37;54.52;102581.25;143731;630;46012;-73
2021/10/20 01:22:24;;;;;;;11.63;10.43;;;;;;;17.33;54.25;102575.34;143732;602;46008;-74
2021/10/20 01:24:51;;;;;;;12.73;11.43;;;;;;;17.30;54.83;102573.00;143732;657;47005;-74
2021/10/20 01:27:17;;;;;;;15.38;10.93;;;;;;;17.31;54.64;102582.84;143731;575;47012;-74
2021/10/20 01:29:44;;;;;;;12.70;10.73;;;;;;;17.26;54.60;102578.00;143730;636;47006;-73
2021/10/20 01:32:10;;;;;;;13.65;11.70;;;;;;;17.24;55.34;102576.53;143732;568;47002;-74
2021/10/20 01:34:39;;;;;;;14.82;12.20;;;;;;;17.24;55.47;102571.12;143733;567;47004;-74
2021/10/20 01:37:06;;;;;;;16.87;12.15;;;;;;;17.22;55.12;102573.19;143732;630;47010;-74
2021/10/20 01:39:34;;;;;;;13.60;11.30;;;;;;;17.22;55.17;102587.59;143729;678;47006;-74
2021/10/20 01:42:01;;;;;;;12.75;11.12;;;;;;;17.19;55.38;102577.16;143729;575;47008;-74
2021/10/20 01:44:27;;;;;;;14.45;11.32;;;;;;;17.21;54.53;102577.75;143734;586;47004;-74
2021/10/20 01:46:53;;;;;;;15.70;11.73;;;;;;;17.21;54.96;102579.66;143733;578;46011;-74
2021/10/20 01:49:20;;;;;;;13.93;10.68;;;;;;;17.19;54.49;102582.56;143729;591;47006;-74
2021/10/20 01:51:47;;;;;;;14.70;11.50;;;;;;;17.16;54.95;102582.09;143731;631;47008;-73
2021/10/20 01:54:14;;;;;;;14.10;11.10;;;;;;;17.11;55.43;102577.28;143732;641;47004;-74
2021/10/20 01:56:41;;;;;;;12.45;10.85;;;;;;;17.11;55.13;102574.56;143731;676;47004;-73
2021/10/20 01:59:07;;;;;;;12.40;10.85;;;;;;;17.08;55.51;102569.50;143730;594;47006;-74
2021/10/20 02:01:34;;;;;;;13.48;11.05;;;;;;;17.09;55.07;102565.78;143730;614;46009;-74
2021/10/20 02:04:00;;;;;;;13.32;11.55;;;;;;;17.09;55.36;102574.78;143734;590;47004;-74
2021/10/20 02:06:26;;;;;;;11.57;10.45;;;;;;;17.10;53.99;102568.31;143728;566;47010;-74
2021/10/20 02:08:56;;;;;;;10.88;9.55;;;;;;;17.08;54.28;102567.66;143731;568;47006;-74
2021/10/20 02:11:23;;;;;;;15.48;10.50;;;;;;;17.09;54.89;102561.19;143733;662;47008;-74
2021/10/20 02:13:49;;;;;;;10.13;9.00;;;;;;;17.10;53.19;102562.03;143733;573;47002;-73
2021/10/20 02:16:15;;;;;;;11.73;9.85;;;;;;;17.07;53.32;102562.41;143730;605;47011;-75
2021/10/20 02:18:42;;;;;;;11.30;10.10;;;;;;;17.10;53.75;102575.59;143731;587;47006;-73
2021/10/20 02:21:09;;;;;;;12.88;10.00;;;;;;;17.11;54.02;102564.56;143731;593;47008;-74
2021/10/20 02:23:35;;;;;;;11.88;10.02;;;;;;;17.11;53.71;102564.56;143733;592;47004;-75
2021/10/20 02:26:02;;;;;;;13.25;9.93;;;;;;;17.07;53.51;102565.97;143728;584;47010;-74
2021/10/20 02:28:29;;;;;;;12.65;9.63;;;;;;;17.05;53.59;102561.75;143732;566;47006;-74
2021/10/20 02:30:55;;;;;;;13.05;10.65;;;;;;;17.03;53.65;102564.69;143731;590;47007;-74
2021/10/20 02:33:22;;;;;;;13.07;9.63;;;;;;;17.05;53.90;102572.63;143731;567;47002;-74
2021/10/20 02:35:48;;;;;;;12.07;9.90;;;;;;;17.02;54.73;102568.44;143731;594;47008;-73
2021/10/20 02:38:15;;;;;;;12.82;9.55;;;;;;;17.00;54.78;102572.37;143731;616;47004;-73
2021/10/20 02:40:41;;;;;;;13.10;11.57;;;;;;;16.95;54.93;102568.38;143729;636;47006;-73
2021/10/20 02:43:07;;;;;;;15.68;11.02;;;;;;;16.93;55.17;102562.28;143730;573;47002;-74
2021/10/20 02:45:34;;;;;;;13.40;11.02;;;;;;;16.91;55.16;102567.06;143727;579;47008;-75
2021/10/20 02:48:01;;;;;;;12.37;10.88;;;;;;;16.91;54.57;102568.94;143729;582;47004;-74
2021/10/20 02:50:29;;;;;;;12.60;11.12;;;;;;;16.88;55.00;102564.72;143733;597;46018;-74
2021/10/20 02:52:58;;;;;;;11.70;9.65;;;;;;;16.90;53.92;102561.84;143736;642;46004;-74
2021/10/20 02:55:27;;;;;;;13.73;10.20;;;;;;;16.90;54.53;102565.37;143734;620;46008;-74
2021/10/20 02:57:54;;;;;;;13.85;10.02;;;;;;;16.92;54.86;102570.62;143734;617;46004;-74
2021/10/20 03:00:21;;;;;;;11.25;9.82;;;;;;;16.91;54.47;102577.91;143733;621;46006;-74
2021/10/20 03:02:48;;;;;;;14.20;10.05;;;;;;;16.91;54.38;102583.34;143734;572;47002;-74
2021/10/20 03:05:15;;;;;;;13.35;9.93;;;;;;;16.94;54.75;102584.84;143728;614;47008;-74
2021/10/20 03:07:48;;;;;;;14.18;10.60;;;;;;;16.94;53.90;102580.25;143729;573;47004;-74
2021/10/20 03:10:16;;;;;;;13.57;10.00;;;;;;;16.93;54.46;102584.00;143729;574;47006;-74
2021/10/20 03:12:43;;;;;;;12.50;10.52;;;;;;;16.92;54.13;102585.03;143732;618;47004;-74
2021/10/20 03:15:10;;;;;;;11.27;9.15;;;;;;;16.89;53.99;102585.41;143730;604;46010;-74
2021/10/20 03:17:38;;;;;;;11.77;9.63;;;;;;;16.91;53.42;102579.81;143727;615;47004;-74
2021/10/20 03:20:08;;;;;;;15.27;10.05;;;;;;;16.90;54.05;102573.53;143729;566;47006;-75
2021/10/20 03:22:40;;;;;;;12.93;10.50;;;;;;;16.86;54.44;102584.97;143732;666;47002;-74
2021/10/20 03:25:08;;;;;;;12.50;10.18;;;;;;;16.83;54.17;102578.87;143728;598;47011;-74
2021/10/20 03:27:47;;;;;;;12.30;10.30;;;;;;;16.81;54.82;102580.94;143728;605;47004;-74
2021/10/20 03:30:15;;;;;;;13.68;10.32;;;;;;;16.77;54.83;102574.22;143730;615;46006;-74
2021/10/20 03:32:42;;;;;;;12.27;10.10;;;;;;;16.75;55.04;102575.47;143728;609;48000;-74
2021/10/20 03:35:10;;;;;;;14.63;10.30;;;;;;;16.71;54.90;102579.59;143729;595;47010;-74
2021/10/20 03:37:37;;;;;;;11.63;10.38;;;;;;;16.71;54.58;102574.16;143728;611;47004;-74
2021/10/20 03:40:05;;;;;;;13.38;10.60;;;;;;;16.65;55.39;102576.66;143730;603;46006;-74
2021/10/20 03:42:31;;;;;;;13.48;11.25;;;;;;;16.63;54.83;102586.84;143731;581;47004;-75
2021/10/20 03:44:58;;;;;;;16.92;11.55;;;;;;;16.60;55.04;102579.09;143728;590;47008;-74
2021/10/20 03:47:26;;;;;;;13.68;11.07;;;;;;;16.60;55.08;102584.50;143730;606;47004;-73
2021/10/20 03:49:53;;;;;;;15.50;12.05;;;;;;;16.58;55.72;102591.19;143730;588;46006;-73
2021/10/20 03:52:19;;;;;;;14.68;11.77;;;;;;;16.56;55.47;102583.22;143730;567;47002;-75
2021/10/20 03:54:46;;;;;;;15.88;10.73;;;;;;;16.58;55.30;102583.03;143732;574;46020;-74
2021/10/20 03:57:12;;;;;;;16.30;12.52;;;;;;;16.58;55.24;102585.75;143728;658;47004;-74
2021/10/20 03:59:39;;;;;;;15.02;11.85;;;;;;;16.55;55.78;102584.25;143729;570;47007;-75
2021/10/20 04:02:05;;;;;;;19.77;12.82;;;;;;;16.56;55.75;102591.34;143729;587;47002;-74
2021/10/20 04:04:32;;;;;;;17.98;13.45;;;;;;;16.55;55.34;102591.56;143730;569;46010;-74
2021/10/20 04:06:58;;;;;;;16.17;12.10;;;;;;;16.55;55.73;102597.00;143727;573;47004;-75
2021/10/20 04:09:25;;;;;;;15.68;12.37;;;;;;;16.53;55.74;102591.72;143728;580;47002;-74
2021/10/20 04:11:51;;;;;;;16.98;12.27;;;;;;;16.51;55.72;102589.22;143731;585;47004;-74
2021/10/20 04:14:18;;;;;;;19.58;13.75;;;;;;;16.50;55.28;102611.12;143729;573;47008;-74
2021/10/20 04:16:44;;;;;;;19.73;12.65;;;;;;;16.48;55.95;102605.87;143730;568;47004;-75
2021/10/20 04:19:11;;;;;;;19.60;13.50;;;;;;;16.46;55.88;102607.13;143730;573;46006;-73
2021/10/20 04:21:37;;;;;;;18.98;13.93;;;;;;;16.45;55.46;102606.25;143729;614;47002;-74
2021/10/20 04:24:04;;;;;;;21.92;14.35;;;;;;;16.44;55.78;102603.75;143729;569;47011;-73
2021/10/20 04:26:30;;;;;;;19.33;12.70;;;;;;;16.41;56.02;102606.84;143729;649;47004;-74
2021/10/20 04:28:57;;;;;;;17.90;12.05;;;;;;;16.37;55.54;102595.53;143730;572;46006;-75
2021/10/20 04:31:24;;;;;;;13.88;11.12;;;;;;;16.38;56.02;102599.94;143730;593;47004;-74
2021/10/20 04:33:50;;;;;;;13.57;11.27;;;;;;;16.35;55.50;102606.56;143729;613;46931;-74
2021/10/20 04:36:16;;;;;;;18.48;11.75;;;;;;;16.35;55.58;102608.44;143727;622;47010;-74
2021/10/20 04:38:43;;;;;;;17.70;11.95;;;;;;;16.32;56.06;102614.25;143730;605;46007;-74
2021/10/20 04:41:09;;;;;;;17.05;11.90;;;;;;;16.31;56.05;102602.56;143731;594;47002;-74
2021/10/20 04:43:37;;;;;;;15.63;11.88;;;;;;;16.32;55.76;102606.13;143729;577;47008;-74
2021/10/20 04:46:03;;;;;;;19.92;13.88;;;;;;;16.33;56.17;102608.63;143728;616;47004;-74
2021/10/20 04:48:29;;;;;;;18.42;11.40;;;;;;;16.36;55.79;102605.53;143729;598;47006;-74
2021/10/20 04:50:56;;;;;;;14.60;12.52;;;;;;;16.36;55.47;102602.81;143731;584;47004;-73
2021/10/20 04:53:22;;;;;;;24.08;13.88;;;;;;;16.39;55.87;102604.34;143730;624;47009;-75
2021/10/20 04:55:48;;;;;;;22.67;12.80;;;;;;;16.40;56.51;102608.72;143729;657;47004;-73
2021/10/20 04:58:15;;;;;;;16.60;12.40;;;;;;;16.39;56.11;102612.47;143731;588;46006;-74
2021/10/20 05:00:41;;;;;;;15.88;12.43;;;;;;;16.36;56.13;102610.97;143733;582;46007;-74
2021/10/20 05:03:08;;;;;;;19.98;13.60;;;;;;;16.40;56.31;102613.28;143730;590;47010;-73
2021/10/20 05:05:34;;;;;;;16.02;12.93;;;;;;;16.44;55.92;102610.00;143730;572;47004;-74
2021/10/20 05:08:01;;;;;;;17.73;14.00;;;;;;;16.44;56.16;102610.00;143727;581;47006;-74
2021/10/20 05:10:28;;;;;;;22.00;13.95;;;;;;;16.45;56.02;102613.56;143732;592;47004;-73
2021/10/20 05:12:58;;;;;;;23.27;13.43;;;;;;;16.48;56.14;102613.19;143726;642;47008;-73
2021/10/20 05:15:25;;;;;;;21.08;13.55;;;;;;;16.48;55.88;102618.62;143731;602;47008;-73
2021/10/20 05:17:52;;;;;;;27.27;13.65;;;;;;;16.51;56.22;102616.34;143730;563;47006;-73
2021/10/20 05:20:19;;;;;;;23.05;14.73;;;;;;;16.56;56.01;102610.34;143731;584;47004;-73
2021/10/20 05:22:45;;;;;;;27.80;17.98;;;;;;;16.55;56.08;102610.53;143731;600;46010;-74
2021/10/20 05:25:13;;;;;;;32.13;17.92;;;;;;;16.58;55.93;102610.16;143728;615;47004;-74
2021/10/20 05:27:40;;;;;;;28.73;15.30;;;;;;;16.58;55.75;102616.41;143730;572;47006;-74
2021/10/20 05:30:07;;;;;;;25.25;14.20;;;;;;;16.59;55.49;102617.28;143729;575;47002;-73
2021/10/20 05:32:34;;;;;;;25.05;12.85;;;;;;;16.62;55.21;102614.16;143727;568;47008;-73
2021/10/20 05:35:00;;;;;;;22.20;13.77;;;;;;;16.63;55.38;102613.97;143729;586;47004;-73
2021/10/20 05:37:27;;;;;;;21.23;11.80;;;;;;;16.67;54.97;102620.72;143728;591;47007;-73
2021/10/20 05:39:53;;;;;;;21.20;12.60;;;;;;;16.71;55.18;102615.72;143731;617;47004;-73
2021/10/20 05:42:20;;;;;;;22.77;12.98;;;;;;;16.74;54.12;102620.78;143727;593;47008;-73
2021/10/20 05:44:48;;;;;;;15.05;11.88;;;;;;;16.80;54.47;102611.84;143730;582;47014;-73
2021/10/20 05:47:15;;;;;;;15.63;12.52;;;;;;;16.85;54.14;102621.28;143726;581;47006;-73
2021/10/20 05:49:41;;;;;;;14.90;12.35;;;;;;;16.89;53.95;102622.56;143730;580;47002;-74
2021/10/20 05:52:08;;;;;;;17.75;12.93;;;;;;;16.91;54.24;102625.94;143728;583;47008;-74
2021/10/20 05:54:35;;;;;;;18.23;13.02;;;;;;;16.95;53.64;102619.09;143729;623;47004;-73
2021/10/20 05:57:02;;;;;;;16.92;12.85;;;;;;;17.02;53.85;102630.03;143728;572;47006;-74
2021/10/20 05:59:29;;;;;;;16.30;12.05;;;;;;;17.08;54.12;102624.66;143730;612;47002;-74
2021/10/20 06:01:55;;;;;;;22.77;12.75;;;;;;;17.13;53.60;102626.78;143730;567;47008;-74
2021/10/20 06:04:21;;;;;;;17.60;13.82;;;;;;;17.19;54.30;102625.16;143729;576;47004;-74
2021/10/20 06:06:48;;;;;;;15.98;13.10;;;;;;;17.25;53.40;102627.94;143731;567;46007;-74
2021/10/20 06:09:14;;;;;;;17.12;13.52;;;;;;;17.30;53.83;102632.75;143730;574;47002;-74
2021/10/20 06:11:41;;;;;;;20.33;14.00;;;;;;;17.36;53.50;102637.41;143729;602;47008;-74
2021/10/20 06:14:08;;;;;;;22.30;13.73;;;;;;;17.41;53.69;102642.25;143727;598;47009;-73
2021/10/20 06:16:36;;;;;;;18.35;13.25;;;;;;;17.47;53.57;102637.94;143730;568;46006;-75
2021/10/20 06:19:06;;;;;;;20.88;14.05;;;;;;;17.52;53.71;102647.16;143729;572;47002;-74
2021/10/20 06:21:33;;;;;;;20.77;14.98;;;;;;;17.60;52.64;102648.88;143729;591;47010;-75
2021/10/20 06:24:00;;;;;;;18.75;13.80;;;;;;;17.67;52.25;102647.03;143729;572;47004;-76
2021/10/20 06:26:26;;;;;;;16.55;13.15;;;;;;;17.76;52.16;102646.91;143729;580;47006;-75
2021/10/20 06:28:54;;;;;;;16.55;13.45;;;;;;;17.83;52.14;102650.47;143731;570;48002;-75
2021/10/20 06:31:21;;;;;;;14.27;11.15;;;;;;;17.91;51.47;102646.78;143728;572;47011;-74
2021/10/20 06:33:47;;;;;;;15.48;11.63;;;;;;;17.99;51.47;102652.94;143729;661;47008;-76
2021/10/20 06:36:40;;;;;;;16.15;12.35;;;;;;;18.06;51.66;102658.41;143727;567;47006;-76
2021/10/20 06:39:07;;;;;;;14.32;12.20;;;;;;;18.15;51.85;102664.50;143730;601;47006;-78
2021/10/20 06:41:33;;;;;;;14.77;12.15;;;;;;;18.23;52.00;102669.75;143729;610;47008;-74
2021/10/20 06:43:59;;;;;;;18.48;12.57;;;;;;;18.30;51.55;102664.34;143730;605;46933;-74
2021/10/20 06:46:26;;;;;;;12.88;11.52;;;;;;;18.38;51.43;102657.88;143731;595;47006;-73
2021/10/20 06:48:53;;;;;;;14.25;11.25;;;;;;;18.45;50.49;102658.75;143733;573;46006;-76
2021/10/20 06:51:20;;;;;;;16.27;11.63;;;;;;;18.51;50.80;102665.25;143728;573;47010;-73
2021/10/20 06:53:46;;;;;;;15.82;11.95;;;;;;;18.57;50.45;102672.62;143730;580;47004;-74
2021/10/20 06:56:13;;;;;;;17.77;12.07;;;;;;;18.67;50.66;102667.63;143732;583;46006;-75
2021/10/20 06:58:39;;;;;;;13.00;10.82;;;;;;;18.76;50.75;102674.56;143731;590;47002;-75
2021/10/20 07:01:06;;;;;;;15.73;11.95;;;;;;;18.83;50.45;102676.44;143729;572;47008;-76
2021/10/20 07:03:32;;;;;;;16.08;12.07;;;;;;;18.91;50.61;102679.81;143728;588;47004;-75
2021/10/20 07:05:58;;;;;;;37.33;15.10;;;;;;;19.00;50.73;102679.66;143731;623;46007;-71
2021/10/20 07:08:25;;;;;;;16.17;13.23;;;;;;;19.09;51.12;102671.09;143727;590;47004;-70
2021/10/20 07:10:51;;;;;;;20.17;12.15;;;;;;;19.20;50.86;102680.53;143729;592;47008;-73
2021/10/20 07:13:18;;;;;;;14.93;12.77;;;;;;;19.28;50.39;102673.19;143727;627;48004;-73
2021/10/20 07:15:47;;;;;;;12.68;11.32;;;;;;;19.36;49.49;102681.16;143730;610;47006;-71
2021/10/20 07:18:14;;;;;;;14.87;12.50;;;;;;;19.46;50.33;102672.56;143732;609;47004;-71
2021/10/20 07:20:40;;;;;;;16.20;12.63;;;;;;;19.53;50.46;102674.25;143728;593;47008;-72
2021/10/20 07:23:07;;;;;;;20.12;12.18;;;;;;;19.62;50.65;102677.59;143726;645;47004;-72
2021/10/20 07:25:33;;;;;;;19.65;13.15;;;;;;;19.69;49.59;102678.41;143729;569;47006;-72
2021/10/20 07:28:00;;;;;;;14.75;11.82;;;;;;;19.75;49.12;102682.19;143731;600;47002;-70
2021/10/20 07:30:26;;;;;;;16.00;11.40;;;;;;;19.83;48.61;102679.22;143730;577;46026;-73
2021/10/20 07:32:52;;;;;;;29.02;12.20;;;;;;;19.92;48.72;102673.59;143728;624;47004;-71
2021/10/20 07:35:19;;;;;;;27.52;12.57;;;;;;;20.02;49.30;102675.88;143728;591;47006;-72
2021/10/20 07:37:45;;;;;;;13.98;11.45;;;;;;;20.10;48.82;102678.34;143727;594;48010;-72
2021/10/20 07:40:14;;;;;;;16.62;11.52;;;;;;;20.19;50.35;102681.66;143728;595;46008;-71
2021/10/20 07:42:44;;;;;;;19.70;12.45;;;;;;;20.29;49.87;102677.44;143730;582;47004;-72
2021/10/20 07:45:14;;;;;;;13.60;10.48;;;;;;;20.40;48.75;102677.81;143727;615;47007;-72
2021/10/20 07:47:40;;;;;;;15.45;11.32;;;;;;;20.50;49.89;102680.91;143732;586;47002;-71
2021/10/20 07:50:08;;;;;;;15.82;12.13;;;;;;;20.60;49.52;102670.34;143728;590;46010;-71
2021/10/20 07:52:36;;;;;;;13.73;12.05;;;;;;;20.69;49.64;102681.84;143731;587;47004;-73
2021/10/20 07:55:08;;;;;;;11.75;10.00;;;;;;;20.79;48.72;102678.69;143732;568;46002;-64
2021/10/20 07:57:39;;;;;;;12.15;9.57;;;;;;;20.93;49.27;102670.41;143737;618;47000;-72
2021/10/20 08:00:08;;;;;;;10.85;9.65;;;;;;;21.04;48.94;102670.53;143732;602;47008;-71
2021/10/20 08:02:34;;;;;;;11.50;9.38;;;;;;;21.17;49.94;102671.50;143731;567;47004;-71
2021/10/20 08:05:01;;;;;;;14.40;10.55;;;;;;;21.28;50.60;102673.50;143732;591;46006;-71
2021/10/20 08:07:27;;;;;;;11.48;10.30;;;;;;;21.40;50.13;102670.87;143731;589;47005;-71
2021/10/20 08:09:55;;;;;;;11.50;10.35;;;;;;;21.51;49.38;102667.41;143728;683;46010;-72
2021/10/20 08:12:22;;;;;;;10.38;9.27;;;;;;;21.59;49.16;102665.47;143730;591;47004;-71
2021/10/20 08:14:53;;;;;;;14.82;10.65;;;;;;;21.70;49.04;102663.91;143728;598;47006;-72
2021/10/20 08:17:20;;;;;;;9.95;8.88;;;;;;;21.84;48.24;102670.06;143729;857;47002;-71
2021/10/20 08:19:47;;;;;;;11.45;9.93;;;;;;;21.91;48.67;102677.13;143730;592;47008;-70
2021/10/20 08:22:14;;;;;;;12.10;9.70;;;;;;;22.01;45.92;102673.87;143729;574;47007;-69
2021/10/20 08:24:40;;;;;;;12.05;10.25;;;;;;;22.17;46.13;102677.91;143730;853;46008;-72
2021/10/20 08:27:07;;;;;;;12.85;9.38;;;;;;;22.34;44.99;102669.06;143732;588;47006;-71
2021/10/20 08:29:33;;;;;;;10.98;9.80;;;;;;;22.31;45.16;102670.37;143729;568;47010;-72
2021/10/20 08:32:00;;;;;;;11.02;9.93;;;;;;;22.31;44.04;102678.56;143730;979;47010;-72
2021/10/20 08:34:26;;;;;;;10.73;9.45;;;;;;;22.44;44.00;102679.50;143733;568;47008;-71
2021/10/20 08:36:53;;;;;;;12.25;9.48;;;;;;;22.56;43.88;102681.22;143735;985;46009;-71
2021/10/20 08:39:19;;;;;;;11.52;9.60;;;;;;;22.65;43.96;102673.53;143731;984;46012;-71
2021/10/20 08:41:49;;;;;;;12.02;9.45;;;;;;;22.82;43.15;102675.59;143731;973;47006;-72
2021/10/20 08:44:16;;;;;;;12.68;10.60;;;;;;;22.92;43.59;102678.59;143731;593;47008;-72
2021/10/20 08:46:43;;;;;;;12.73;11.38;;;;;;;23.02;44.15;102675.28;143733;973;47004;-71
2021/10/20 08:49:10;;;;;;;14.48;11.20;;;;;;;23.09;43.06;102670.53;143729;566;47010;-71
2021/10/20 08:51:40;;;;;;;15.52;10.52;;;;;;;23.19;42.44;102680.94;143730;573;47006;-72
2021/10/20 08:54:07;;;;;;;12.48;10.40;;;;;;;23.33;43.20;102678.81;143730;589;47008;-72
2021/10/20 08:56:33;;;;;;;12.43;10.98;;;;;;;23.44;42.04;102678.00;143730;572;47004;-72
2021/10/20 08:59:00;;;;;;;13.55;11.07;;;;;;;23.53;41.41;102672.12;143730;574;47012;-73
2021/10/20 09:01:27;;;;;;;15.43;11.00;;;;;;;23.54;41.85;102662.84;143729;572;47006;-71
2021/10/20 09:03:53;;;;;;;11.38;10.15;;;;;;;23.44;42.19;102669.78;143731;568;47004;-72
2021/10/20 09:06:20;;;;;;;15.52;11.65;;;;;;;23.33;42.43;102664.28;143728;722;47003;-71
2021/10/20 09:08:48;;;;;;;11.63;10.43;;;;;;;23.45;42.35;102656.87;143730;575;47010;-70
2021/10/20 09:11:35;;;;;;;13.77;10.45;;;;;;;23.80;41.87;102657.94;143729;568;47004;-71
2021/10/20 09:14:21;;;;;;;11.90;10.65;;;;;;;24.72;39.42;102663.66;143731;600;46007;-72
2021/10/20 09:16:47;;;;;;;11.57;10.35;;;;;;;25.49;37.13;102661.38;143733;597;47000;-71
2021/10/20 09:19:28;;;;;;;15.50;10.40;;;;;;;28.51;31.62;102662.56;143727;590;47010;-71
2021/10/20 09:22:02;;;;;;;13.27;11.60;;;;;;;27.19;33.82;102663.28;143729;597;47005;-72
2021/10/20 09:24:43;;;;;;;17.27;12.40;;;;;;;25.81;37.61;102658.78;143730;568;46006;-71
2021/10/20 09:27:22;;;;;;;15.98;12.02;;;;;;;26.56;36.16;102657.47;143732;569;47004;-71
2021/10/20 09:29:48;;;;;;;13.70;11.23;;;;;;;25.59;37.84;102656.00;143726;623;49002;-71
2021/10/20 09:32:18;;;;;;;13.73;12.13;;;;;;;24.78;40.37;102665.41;143730;677;47004;-73
2021/10/20 09:34:44;;;;;;;13.20;11.80;;;;;;;24.24;41.61;102663.00;143731;615;46007;-72
2021/10/20 09:37:11;;;;;;;15.75;10.63;;;;;;;23.83;43.05;102655.53;143734;608;47002;-72
2021/10/20 09:39:38;;;;;;;13.05;10.95;;;;;;;23.53;44.38;102648.31;143730;567;47010;-72
2021/10/20 09:42:08;;;;;;;13.05;11.23;;;;;;;23.34;44.43;102652.25;143731;696;47004;-71
2021/10/20 09:44:52;;;;;;;14.68;12.90;;;;;;;23.15;45.30;102649.56;143731;573;46007;-71
2021/10/20 09:47:20;;;;;;;14.97;11.70;;;;;;;23.04;45.38;102650.37;143732;578;47004;-71
2021/10/20 09:49:56;;;;;;;13.23;11.00;;;;;;;26.15;38.86;102646.84;143731;590;46010;-71
2021/10/20 09:52:24;;;;;;;12.65;10.20;;;;;;;29.27;32.82;102643.50;143727;584;47004;-72
2021/10/20 09:54:50;;;;;;;11.70;10.50;;;;;;;29.50;31.14;102641.28;143730;573;47006;-71
2021/10/20 09:57:17;;;;;;;12.55;10.30;;;;;;;29.12;32.03;102638.00;143733;582;47004;-71
2021/10/20 09:59:44;;;;;;;18.15;11.12;;;;;;;28.79;32.47;102640.22;143728;586;47008;-69
2021/10/20 10:02:13;;;;;;;14.20;10.35;;;;;;;28.39;33.76;102632.41;143729;603;47004;-72
2021/10/20 10:04:40;;;;;;;12.13;10.23;;;;;;;27.89;35.06;102634.72;143733;635;46007;-71
2021/10/20 10:07:07;;;;;;;10.93;9.70;;;;;;;27.35;33.66;102628.38;143733;597;46018;-71
2021/10/20 10:09:34;;;;;;;12.68;9.50;;;;;;;26.97;33.45;102623.94;143730;566;47008;-72
2021/10/20 10:12:13;;;;;;;10.88;9.75;;;;;;;26.60;35.03;102629.13;143730;745;47005;-71
2021/10/20 10:14:58;;;;;;;10.48;9.38;;;;;;;26.28;34.53;102615.31;143732;572;47006;-71
2021/10/20 10:17:28;;;;;;;10.98;9.23;;;;;;;26.04;35.02;102618.31;143733;655;47002;-73
2021/10/20 10:20:05;;;;;;;12.35;9.23;;;;;;;25.86;35.29;102612.06;143732;588;46022;-72
2021/10/20 10:22:31;;;;;;;10.15;8.40;;;;;;;25.69;34.79;102609.34;143732;604;47004;-71
2021/10/20 10:25:07;;;;;;;10.93;9.48;;;;;;;25.60;36.16;102599.03;143732;567;46006;-71
2021/10/20 10:27:35;;;;;;;15.43;9.43;;;;;;;25.49;36.42;102612.66;143734;601;47002;-71
2021/10/20 10:30:17;;;;;;;14.23;9.50;;;;;;;25.40;37.36;102603.16;143732;583;46025;-71
2021/10/20 10:32:47;;;;;;;15.95;10.02;;;;;;;25.34;38.04;102599.50;143730;618;47004;-70
2021/10/20 10:35:14;;;;;;;12.27;9.70;;;;;;;25.31;37.83;102600.03;143731;593;47007;-70
2021/10/20 10:37:40;;;;;;;11.55;9.75;;;;;;;25.24;37.38;102594.66;143731;592;47002;-71
2021/10/20 10:40:28;;;;;;;10.07;9.07;;;;;;;25.23;38.15;102583.94;143732;699;47010;-72
2021/10/20 10:43:05;;;;;;;12.82;10.23;;;;;;;25.24;37.21;102583.69;143731;580;47004;-71
2021/10/20 10:45:31;;;;;;;13.02;11.10;;;;;;;25.23;37.54;102573.78;143731;590;46006;-71
2021/10/20 10:48:08;;;;;;;15.48;9.65;;;;;;;25.16;36.76;102575.03;143733;566;47004;-70
2021/10/20 10:50:53;;;;;;;10.18;9.18;;;;;;;25.11;36.47;102570.28;143733;596;47008;-71
2021/10/20 10:53:32;;;;;;;;;;;;;;;25.01;36.42;102570.16;143734;980;47004;-70
2021/10/20 10:56:10;;;;;;;10.23;9.27;;;;;;;24.94;37.06;102567.56;143737;682;47008;-71
2021/10/20 10:59:06;;;;;;;12.13;8.18;;;;;;;24.70;37.31;102566.88;143733;582;47002;-71
2021/10/20 11:02:24;;;;;;;11.02;9.82;;;;;;;24.42;38.50;102563.94;143731;572;47010;-71
2021/10/20 11:04:51;;;;;;;11.27;9.27;;;;;;;24.33;39.73;102568.16;143731;573;47005;-72
2021/10/20 11:07:17;;;;;;;11.68;8.38;;;;;;;24.08;38.87;102572.09;143729;651;47006;-71
2021/10/20 11:09:44;;;;;;;10.05;8.43;;;;;;;23.83;39.81;102562.25;143736;589;46006;-74
2021/10/20 11:12:10;;;;;;;11.23;8.68;;;;;;;23.69;39.13;102563.59;143731;593;47010;-71
2021/10/20 11:14:41;;;;;;;9.38;8.38;;;;;;;23.55;39.46;102552.91;143733;582;46008;-71
2021/10/20 11:17:11;;;;;;;10.13;8.48;;;;;;;23.39;40.23;102551.72;143732;572;47006;-70